Orbital elements of AYAME
| Launched | 5 February 1979 |
| Flight ended | – |
| Launch site | Tanegashima Space Center, Japan |
| Owner | Japan |
| NORAD ID | 11261 |
| Alternative names |
ECS |
| Date fetched |
Epoch osculation |
Inc. [°] |
Ecc. | RA asc node [hr] |
Arg Peri. [°] |
Mean anom [°] |
Mean motion [rev/day] |
Abs. mag |
| Date fetched |
Epoch osculation |
Inc. [°] |
Ecc. | RA asc node [hr] |
Arg Peri. [°] |
Mean anom [°] |
Mean motion [rev/day] |
Abs. mag |
| 2026 May 08 17:57 | 2026 May 05 13:06:41 | 9.7230 | 0.36734 | 20.4085 | 136.7558 | 238.2439 | 1.68584 | – |
| 2026 May 07 17:58 | 2026 May 05 13:06:41 | 9.7230 | 0.36734 | 20.4085 | 136.7558 | 238.2439 | 1.68584 | – |
| 2026 May 06 17:57 | 2026 May 05 13:06:41 | 9.7230 | 0.36734 | 20.4085 | 136.7558 | 238.2439 | 1.68584 | – |
| 2026 May 05 17:57 | 2026 May 05 13:06:41 | 9.7230 | 0.36734 | 20.4085 | 136.7558 | 238.2439 | 1.68584 | – |
| 2026 May 04 17:57 | 2026 Apr 30 10:32:01 | 9.7321 | 0.36729 | 20.4267 | 136.1788 | 238.2439 | 1.68584 | – |
| 2026 May 03 17:57 | 2026 Apr 30 10:32:01 | 9.7321 | 0.36729 | 20.4267 | 136.1788 | 238.2439 | 1.68584 | – |
| 2026 May 02 17:57 | 2026 Apr 30 10:32:01 | 9.7321 | 0.36729 | 20.4267 | 136.1788 | 238.2439 | 1.68584 | – |
| 2026 May 01 17:56 | 2026 Apr 30 10:32:01 | 9.7321 | 0.36729 | 20.4267 | 136.1788 | 238.2439 | 1.68584 | – |
| 2026 Apr 30 17:56 | 2026 Apr 30 10:32:01 | 9.7321 | 0.36729 | 20.4267 | 136.1788 | 238.2439 | 1.68584 | – |
| 2026 Apr 29 17:57 | 2026 Apr 24 12:26:52 | 9.7426 | 0.36723 | 20.4476 | 135.5090 | 238.2439 | 1.68584 | – |
| 2026 Apr 28 17:56 | 2026 Apr 24 12:26:52 | 9.7426 | 0.36723 | 20.4476 | 135.5090 | 238.2439 | 1.68584 | – |
| 2026 Apr 27 17:58 | 2026 Apr 24 12:26:52 | 9.7426 | 0.36723 | 20.4476 | 135.5090 | 238.2439 | 1.68584 | – |
| 2026 Apr 26 17:58 | 2026 Apr 24 12:26:52 | 9.7426 | 0.36723 | 20.4476 | 135.5090 | 238.2439 | 1.68584 | – |
| 2026 Apr 25 17:58 | 2026 Apr 24 12:26:52 | 9.7426 | 0.36723 | 20.4476 | 135.5090 | 238.2439 | 1.68584 | – |
| 2026 Apr 24 17:59 | 2026 Apr 24 12:26:52 | 9.7426 | 0.36723 | 20.4476 | 135.5090 | 238.2439 | 1.68584 | – |
| 2026 Apr 23 17:57 | 2026 Apr 19 13:30:16 | 9.7514 | 0.36718 | 20.4652 | 134.9489 | 238.2439 | 1.68584 | – |
| 2026 Apr 22 17:57 | 2026 Apr 19 13:30:16 | 9.7514 | 0.36718 | 20.4652 | 134.9489 | 238.2439 | 1.68584 | – |
| 2026 Apr 21 17:57 | 2026 Apr 19 13:30:16 | 9.7514 | 0.36718 | 20.4652 | 134.9489 | 238.2439 | 1.68584 | – |
| 2026 Apr 20 17:57 | 2026 Apr 19 13:30:16 | 9.7514 | 0.36718 | 20.4652 | 134.9489 | 238.2439 | 1.68584 | – |
| 2026 Apr 19 17:58 | 2026 Apr 19 13:30:16 | 9.7514 | 0.36718 | 20.4652 | 134.9489 | 238.2439 | 1.68584 | – |
| 2026 Apr 18 17:56 | 2026 Apr 13 00:51:56 | 9.7629 | 0.36711 | 20.4882 | 134.2134 | 238.2439 | 1.68584 | – |
| 2026 Apr 16 17:57 | 2026 Apr 13 00:51:56 | 9.7629 | 0.36711 | 20.4882 | 134.2134 | 238.2439 | 1.68584 | – |
| 2026 Apr 14 17:57 | 2026 Apr 13 00:51:56 | 9.7629 | 0.36711 | 20.4882 | 134.2134 | 238.2439 | 1.68584 | – |
| 2026 Apr 13 17:57 | 2026 Apr 13 00:51:56 | 9.7629 | 0.36711 | 20.4882 | 134.2134 | 238.2439 | 1.68584 | – |
| 2026 Apr 12 17:57 | 2026 Apr 08 07:31:00 | 9.7711 | 0.36705 | 20.5049 | 133.6822 | 238.2439 | 1.68584 | – |
| 2026 Apr 11 17:57 | 2026 Apr 08 07:31:00 | 9.7711 | 0.36705 | 20.5049 | 133.6822 | 238.2439 | 1.68584 | – |